sensor_id;sensor_type;location;lat;lon;timestamp;P1;durP1;ratioP1;P2;durP2;ratioP2
75639;SDS011;64233;51.486;6.332;2022-12-10T00:01:16;15.85;;;8.10;;
75639;SDS011;64233;51.486;6.332;2022-12-10T00:03:43;19.35;;;8.45;;
75639;SDS011;64233;51.486;6.332;2022-12-10T00:06:13;12.65;;;7.32;;
75639;SDS011;64233;51.486;6.332;2022-12-10T00:08:49;14.77;;;7.45;;
75639;SDS011;64233;51.486;6.332;2022-12-10T00:11:16;17.13;;;7.80;;
75639;SDS011;64233;51.486;6.332;2022-12-10T00:13:43;18.05;;;10.02;;
75639;SDS011;64233;51.486;6.332;2022-12-10T00:16:10;27.80;;;10.27;;
75639;SDS011;64233;51.486;6.332;2022-12-10T00:18:37;13.63;;;8.70;;
75639;SDS011;64233;51.486;6.332;2022-12-10T00:21:03;14.02;;;8.05;;
75639;SDS011;64233;51.486;6.332;2022-12-10T00:23:33;19.65;;;8.98;;
75639;SDS011;64233;51.486;6.332;2022-12-10T00:26:03;22.67;;;10.40;;
75639;SDS011;64233;51.486;6.332;2022-12-10T00:28:34;18.47;;;8.40;;
75639;SDS011;64233;51.486;6.332;2022-12-10T00:31:07;18.65;;;8.40;;
75639;SDS011;64233;51.486;6.332;2022-12-10T00:33:35;18.27;;;8.32;;
75639;SDS011;64233;51.486;6.332;2022-12-10T00:36:02;17.73;;;8.15;;
75639;SDS011;64233;51.486;6.332;2022-12-10T00:38:28;15.05;;;8.60;;
75639;SDS011;64233;51.486;6.332;2022-12-10T00:40:54;16.45;;;9.95;;
75639;SDS011;64233;51.486;6.332;2022-12-10T00:43:19;20.63;;;10.00;;
75639;SDS011;64233;51.486;6.332;2022-12-10T00:45:44;11.80;;;6.70;;
75639;SDS011;64233;51.486;6.332;2022-12-10T00:48:09;16.65;;;9.10;;
75639;SDS011;64233;51.486;6.332;2022-12-10T00:50:35;20.08;;;10.30;;
75639;SDS011;64233;51.486;6.332;2022-12-10T00:53:00;16.38;;;8.10;;
75639;SDS011;64233;51.486;6.332;2022-12-10T00:55:26;17.27;;;7.30;;
75639;SDS011;64233;51.486;6.332;2022-12-10T00:57:51;11.82;;;7.35;;
75639;SDS011;64233;51.486;6.332;2022-12-10T01:00:16;18.77;;;7.38;;
75639;SDS011;64233;51.486;6.332;2022-12-10T01:02:42;14.13;;;7.13;;
75639;SDS011;64233;51.486;6.332;2022-12-10T01:05:07;14.07;;;8.30;;
75639;SDS011;64233;51.486;6.332;2022-12-10T01:07:32;14.45;;;8.18;;
75639;SDS011;64233;51.486;6.332;2022-12-10T01:09:58;17.52;;;8.40;;
75639;SDS011;64233;51.486;6.332;2022-12-10T01:12:23;16.75;;;8.85;;
75639;SDS011;64233;51.486;6.332;2022-12-10T01:14:48;15.02;;;8.32;;
75639;SDS011;64233;51.486;6.332;2022-12-10T01:17:13;17.52;;;8.90;;
75639;SDS011;64233;51.486;6.332;2022-12-10T01:19:39;16.08;;;8.32;;
75639;SDS011;64233;51.486;6.332;2022-12-10T01:22:04;16.95;;;7.82;;
75639;SDS011;64233;51.486;6.332;2022-12-10T01:24:30;16.40;;;8.32;;
75639;SDS011;64233;51.486;6.332;2022-12-10T01:26:56;18.58;;;8.38;;
75639;SDS011;64233;51.486;6.332;2022-12-10T01:29:21;17.15;;;9.40;;
75639;SDS011;64233;51.486;6.332;2022-12-10T01:31:50;19.88;;;9.32;;
75639;SDS011;64233;51.486;6.332;2022-12-10T01:34:17;20.83;;;9.80;;
75639;SDS011;64233;51.486;6.332;2022-12-10T01:36:43;20.02;;;8.88;;
75639;SDS011;64233;51.486;6.332;2022-12-10T01:39:11;19.45;;;10.23;;
75639;SDS011;64233;51.486;6.332;2022-12-10T01:41:40;14.07;;;9.45;;
75639;SDS011;64233;51.486;6.332;2022-12-10T01:46:42;13.23;;;8.63;;
75639;SDS011;64233;51.486;6.332;2022-12-10T01:49:20;17.75;;;8.52;;
75639;SDS011;64233;51.486;6.332;2022-12-10T01:51:48;17.58;;;8.02;;
75639;SDS011;64233;51.486;6.332;2022-12-10T01:54:17;12.73;;;7.15;;
75639;SDS011;64233;51.486;6.332;2022-12-10T01:56:46;18.20;;;7.25;;
75639;SDS011;64233;51.486;6.332;2022-12-10T01:59:15;16.30;;;8.90;;
75639;SDS011;64233;51.486;6.332;2022-12-10T02:07:06;14.25;;;7.32;;
75639;SDS011;64233;51.486;6.332;2022-12-10T02:09:45;14.50;;;6.15;;
75639;SDS011;64233;51.486;6.332;2022-12-10T02:12:24;11.45;;;6.05;;
75639;SDS011;64233;51.486;6.332;2022-12-10T02:15:09;14.70;;;8.05;;
75639;SDS011;64233;51.486;6.332;2022-12-10T02:17:40;14.45;;;8.02;;
75639;SDS011;64233;51.486;6.332;2022-12-10T02:25:48;14.88;;;7.68;;
75639;SDS011;64233;51.486;6.332;2022-12-10T02:28:33;16.92;;;8.48;;
75639;SDS011;64233;51.486;6.332;2022-12-10T02:31:16;16.17;;;8.85;;
75639;SDS011;64233;51.486;6.332;2022-12-10T02:33:47;17.83;;;7.53;;
75639;SDS011;64233;51.486;6.332;2022-12-10T02:36:16;16.02;;;8.80;;
75639;SDS011;64233;51.486;6.332;2022-12-10T02:38:46;13.35;;;7.15;;
75639;SDS011;64233;51.486;6.332;2022-12-10T02:41:16;13.98;;;7.97;;
75639;SDS011;64233;51.486;6.332;2022-12-10T02:43:45;15.00;;;8.75;;
75639;SDS011;64233;51.486;6.332;2022-12-10T02:46:13;18.15;;;8.57;;
75639;SDS011;64233;51.486;6.332;2022-12-10T02:48:39;20.88;;;9.52;;
75639;SDS011;64233;51.486;6.332;2022-12-10T02:51:05;17.08;;;8.48;;
75639;SDS011;64233;51.486;6.332;2022-12-10T02:53:30;18.55;;;8.35;;
75639;SDS011;64233;51.486;6.332;2022-12-10T03:01:25;19.25;;;9.48;;
75639;SDS011;64233;51.486;6.332;2022-12-10T03:03:55;22.50;;;9.05;;
75639;SDS011;64233;51.486;6.332;2022-12-10T03:09:07;13.48;;;8.70;;
75639;SDS011;64233;51.486;6.332;2022-12-10T03:11:42;15.45;;;9.18;;
75639;SDS011;64233;51.486;6.332;2022-12-10T03:14:14;22.25;;;10.77;;
75639;SDS011;64233;51.486;6.332;2022-12-10T03:16:46;20.08;;;8.90;;
75639;SDS011;64233;51.486;6.332;2022-12-10T03:19:20;14.63;;;8.30;;
75639;SDS011;64233;51.486;6.332;2022-12-10T03:21:48;17.02;;;8.25;;
75639;SDS011;64233;51.486;6.332;2022-12-10T03:24:16;17.92;;;9.95;;
75639;SDS011;64233;51.486;6.332;2022-12-10T03:26:43;17.40;;;8.75;;
75639;SDS011;64233;51.486;6.332;2022-12-10T03:29:23;13.48;;;6.30;;
75639;SDS011;64233;51.486;6.332;2022-12-10T03:31:52;17.98;;;9.25;;
75639;SDS011;64233;51.486;6.332;2022-12-10T03:34:18;15.43;;;9.02;;
75639;SDS011;64233;51.486;6.332;2022-12-10T03:36:44;19.05;;;10.40;;
75639;SDS011;64233;51.486;6.332;2022-12-10T03:39:10;18.95;;;9.20;;
75639;SDS011;64233;51.486;6.332;2022-12-10T03:41:37;26.25;;;12.45;;
75639;SDS011;64233;51.486;6.332;2022-12-10T03:44:03;13.93;;;7.82;;
75639;SDS011;64233;51.486;6.332;2022-12-10T03:46:29;17.73;;;9.85;;
75639;SDS011;64233;51.486;6.332;2022-12-10T03:48:56;24.58;;;9.30;;
75639;SDS011;64233;51.486;6.332;2022-12-10T03:51:22;16.50;;;9.32;;
75639;SDS011;64233;51.486;6.332;2022-12-10T03:53:47;15.55;;;9.93;;
75639;SDS011;64233;51.486;6.332;2022-12-10T03:56:16;29.10;;;12.27;;
75639;SDS011;64233;51.486;6.332;2022-12-10T03:58:42;16.50;;;8.73;;
75639;SDS011;64233;51.486;6.332;2022-12-10T04:01:08;22.17;;;8.13;;
75639;SDS011;64233;51.486;6.332;2022-12-10T04:03:36;17.30;;;10.20;;
75639;SDS011;64233;51.486;6.332;2022-12-10T04:06:04;17.63;;;8.60;;
75639;SDS011;64233;51.486;6.332;2022-12-10T04:08:31;18.77;;;9.85;;
75639;SDS011;64233;51.486;6.332;2022-12-10T04:11:01;20.67;;;11.23;;
75639;SDS011;64233;51.486;6.332;2022-12-10T04:13:35;22.38;;;10.20;;
75639;SDS011;64233;51.486;6.332;2022-12-10T04:16:27;21.65;;;9.40;;
75639;SDS011;64233;51.486;6.332;2022-12-10T04:18:57;20.92;;;10.38;;
75639;SDS011;64233;51.486;6.332;2022-12-10T04:21:25;19.30;;;10.13;;
75639;SDS011;64233;51.486;6.332;2022-12-10T04:24:10;20.43;;;9.90;;
75639;SDS011;64233;51.486;6.332;2022-12-10T04:26:55;22.58;;;10.10;;
75639;SDS011;64233;51.486;6.332;2022-12-10T04:29:23;20.20;;;8.90;;
75639;SDS011;64233;51.486;6.332;2022-12-10T04:31:50;18.38;;;9.10;;
75639;SDS011;64233;51.486;6.332;2022-12-10T04:34:16;19.55;;;9.43;;
75639;SDS011;64233;51.486;6.332;2022-12-10T04:36:42;23.58;;;11.20;;
75639;SDS011;64233;51.486;6.332;2022-12-10T04:39:07;18.35;;;10.45;;
75639;SDS011;64233;51.486;6.332;2022-12-10T04:41:32;22.83;;;10.52;;
75639;SDS011;64233;51.486;6.332;2022-12-10T04:43:58;22.98;;;10.52;;
75639;SDS011;64233;51.486;6.332;2022-12-10T04:46:23;21.77;;;9.88;;
75639;SDS011;64233;51.486;6.332;2022-12-10T04:48:48;27.15;;;12.50;;
75639;SDS011;64233;51.486;6.332;2022-12-10T04:51:13;22.00;;;9.60;;
75639;SDS011;64233;51.486;6.332;2022-12-10T04:53:39;22.90;;;12.25;;
75639;SDS011;64233;51.486;6.332;2022-12-10T04:56:04;21.83;;;10.45;;
75639;SDS011;64233;51.486;6.332;2022-12-10T04:58:31;25.60;;;13.15;;
75639;SDS011;64233;51.486;6.332;2022-12-10T05:01:03;29.67;;;12.10;;
75639;SDS011;64233;51.486;6.332;2022-12-10T05:03:29;23.20;;;13.35;;
75639;SDS011;64233;51.486;6.332;2022-12-10T05:05:55;32.90;;;12.68;;
75639;SDS011;64233;51.486;6.332;2022-12-10T05:08:20;31.63;;;13.57;;
75639;SDS011;64233;51.486;6.332;2022-12-10T05:10:46;28.45;;;12.60;;
75639;SDS011;64233;51.486;6.332;2022-12-10T05:13:11;27.42;;;12.57;;
75639;SDS011;64233;51.486;6.332;2022-12-10T05:15:39;34.35;;;12.32;;
75639;SDS011;64233;51.486;6.332;2022-12-10T05:18:04;33.55;;;13.30;;
75639;SDS011;64233;51.486;6.332;2022-12-10T05:20:30;32.42;;;11.77;;
75639;SDS011;64233;51.486;6.332;2022-12-10T05:22:55;30.58;;;13.88;;
75639;SDS011;64233;51.486;6.332;2022-12-10T05:25:39;28.27;;;14.65;;
75639;SDS011;64233;51.486;6.332;2022-12-10T05:28:20;30.13;;;14.80;;
75639;SDS011;64233;51.486;6.332;2022-12-10T05:30:46;32.67;;;11.93;;
75639;SDS011;64233;51.486;6.332;2022-12-10T05:33:11;33.55;;;13.98;;
75639;SDS011;64233;51.486;6.332;2022-12-10T05:35:38;32.97;;;14.52;;
75639;SDS011;64233;51.486;6.332;2022-12-10T05:38:04;34.17;;;13.07;;
75639;SDS011;64233;51.486;6.332;2022-12-10T05:40:30;30.23;;;12.23;;
75639;SDS011;64233;51.486;6.332;2022-12-10T05:42:59;31.50;;;14.00;;
75639;SDS011;64233;51.486;6.332;2022-12-10T05:45:24;36.47;;;14.63;;
75639;SDS011;64233;51.486;6.332;2022-12-10T05:47:49;31.98;;;12.88;;
75639;SDS011;64233;51.486;6.332;2022-12-10T05:50:14;30.85;;;13.32;;
75639;SDS011;64233;51.486;6.332;2022-12-10T05:52:40;33.20;;;14.27;;
75639;SDS011;64233;51.486;6.332;2022-12-10T05:55:05;28.77;;;14.98;;
75639;SDS011;64233;51.486;6.332;2022-12-10T05:57:30;23.13;;;9.88;;
75639;SDS011;64233;51.486;6.332;2022-12-10T05:59:56;25.33;;;11.43;;
75639;SDS011;64233;51.486;6.332;2022-12-10T06:02:21;37.75;;;14.70;;
75639;SDS011;64233;51.486;6.332;2022-12-10T06:04:46;34.22;;;13.77;;
75639;SDS011;64233;51.486;6.332;2022-12-10T06:07:12;37.70;;;15.15;;
75639;SDS011;64233;51.486;6.332;2022-12-10T06:09:37;32.80;;;14.13;;
75639;SDS011;64233;51.486;6.332;2022-12-10T06:12:02;26.70;;;12.80;;
75639;SDS011;64233;51.486;6.332;2022-12-10T06:14:27;31.30;;;13.20;;
75639;SDS011;64233;51.486;6.332;2022-12-10T06:17:07;37.42;;;15.85;;
75639;SDS011;64233;51.486;6.332;2022-12-10T06:19:32;41.92;;;17.25;;
75639;SDS011;64233;51.486;6.332;2022-12-10T06:21:57;32.72;;;13.50;;
75639;SDS011;64233;51.486;6.332;2022-12-10T06:24:23;19.48;;;9.13;;
75639;SDS011;64233;51.486;6.332;2022-12-10T06:26:48;26.80;;;12.40;;
75639;SDS011;64233;51.486;6.332;2022-12-10T06:29:14;26.77;;;12.23;;
75639;SDS011;64233;51.486;6.332;2022-12-10T06:31:39;23.25;;;10.50;;
75639;SDS011;64233;51.486;6.332;2022-12-10T06:34:05;32.78;;;13.88;;
75639;SDS011;64233;51.486;6.332;2022-12-10T06:36:30;17.63;;;9.65;;
75639;SDS011;64233;51.486;6.332;2022-12-10T06:38:55;28.73;;;13.05;;
75639;SDS011;64233;51.486;6.332;2022-12-10T06:41:21;34.20;;;14.20;;
75639;SDS011;64233;51.486;6.332;2022-12-10T06:43:46;24.27;;;11.57;;
75639;SDS011;64233;51.486;6.332;2022-12-10T06:46:13;23.42;;;11.95;;
75639;SDS011;64233;51.486;6.332;2022-12-10T06:48:40;31.73;;;11.27;;
75639;SDS011;64233;51.486;6.332;2022-12-10T06:51:07;40.15;;;15.32;;
75639;SDS011;64233;51.486;6.332;2022-12-10T06:53:33;33.97;;;13.85;;
75639;SDS011;64233;51.486;6.332;2022-12-10T06:56:00;40.35;;;16.13;;
75639;SDS011;64233;51.486;6.332;2022-12-10T06:58:27;26.42;;;10.55;;
75639;SDS011;64233;51.486;6.332;2022-12-10T07:00:53;19.73;;;9.85;;
75639;SDS011;64233;51.486;6.332;2022-12-10T07:03:18;23.08;;;13.38;;
75639;SDS011;64233;51.486;6.332;2022-12-10T07:05:43;24.55;;;11.10;;
75639;SDS011;64233;51.486;6.332;2022-12-10T07:08:09;39.22;;;14.57;;
75639;SDS011;64233;51.486;6.332;2022-12-10T07:10:36;20.30;;;9.63;;
75639;SDS011;64233;51.486;6.332;2022-12-10T07:13:01;32.45;;;13.25;;
75639;SDS011;64233;51.486;6.332;2022-12-10T07:15:27;16.45;;;7.40;;
75639;SDS011;64233;51.486;6.332;2022-12-10T07:17:53;37.80;;;14.95;;
75639;SDS011;64233;51.486;6.332;2022-12-10T07:20:18;27.50;;;10.05;;
75639;SDS011;64233;51.486;6.332;2022-12-10T07:22:43;10.18;;;4.57;;
75639;SDS011;64233;51.486;6.332;2022-12-10T07:25:09;27.50;;;14.23;;
75639;SDS011;64233;51.486;6.332;2022-12-10T07:27:34;23.05;;;9.05;;
75639;SDS011;64233;51.486;6.332;2022-12-10T07:29:59;33.38;;;7.97;;
75639;SDS011;64233;51.486;6.332;2022-12-10T07:32:26;25.27;;;11.73;;
75639;SDS011;64233;51.486;6.332;2022-12-10T07:34:52;31.98;;;14.98;;
75639;SDS011;64233;51.486;6.332;2022-12-10T07:37:17;14.82;;;7.30;;
75639;SDS011;64233;51.486;6.332;2022-12-10T07:39:42;30.42;;;12.45;;
75639;SDS011;64233;51.486;6.332;2022-12-10T07:42:08;24.77;;;8.35;;
75639;SDS011;64233;51.486;6.332;2022-12-10T07:44:34;17.05;;;8.63;;
75639;SDS011;64233;51.486;6.332;2022-12-10T07:46:59;30.73;;;13.10;;
75639;SDS011;64233;51.486;6.332;2022-12-10T07:49:24;32.28;;;13.07;;
75639;SDS011;64233;51.486;6.332;2022-12-10T07:51:50;29.40;;;15.13;;
75639;SDS011;64233;51.486;6.332;2022-12-10T07:54:16;37.13;;;14.20;;
75639;SDS011;64233;51.486;6.332;2022-12-10T07:56:42;40.75;;;14.60;;
75639;SDS011;64233;51.486;6.332;2022-12-10T07:59:07;26.08;;;10.60;;
75639;SDS011;64233;51.486;6.332;2022-12-10T08:01:32;18.83;;;9.38;;
75639;SDS011;64233;51.486;6.332;2022-12-10T08:03:58;26.35;;;8.48;;
75639;SDS011;64233;51.486;6.332;2022-12-10T08:06:24;30.42;;;15.45;;
75639;SDS011;64233;51.486;6.332;2022-12-10T08:08:51;37.45;;;15.85;;
75639;SDS011;64233;51.486;6.332;2022-12-10T08:11:18;35.40;;;14.50;;
75639;SDS011;64233;51.486;6.332;2022-12-10T08:13:45;28.52;;;12.35;;
75639;SDS011;64233;51.486;6.332;2022-12-10T08:16:11;19.95;;;12.55;;
75639;SDS011;64233;51.486;6.332;2022-12-10T08:18:39;25.83;;;12.07;;
75639;SDS011;64233;51.486;6.332;2022-12-10T08:21:05;26.63;;;11.98;;
75639;SDS011;64233;51.486;6.332;2022-12-10T08:23:32;39.15;;;15.25;;
75639;SDS011;64233;51.486;6.332;2022-12-10T08:25:58;46.63;;;18.00;;
75639;SDS011;64233;51.486;6.332;2022-12-10T08:28:23;21.08;;;9.80;;
75639;SDS011;64233;51.486;6.332;2022-12-10T08:30:49;18.77;;;9.82;;
75639;SDS011;64233;51.486;6.332;2022-12-10T08:33:14;23.30;;;10.95;;
75639;SDS011;64233;51.486;6.332;2022-12-10T08:35:40;45.90;;;15.55;;
75639;SDS011;64233;51.486;6.332;2022-12-10T08:38:05;22.77;;;10.38;;
75639;SDS011;64233;51.486;6.332;2022-12-10T08:40:31;21.95;;;10.88;;
75639;SDS011;64233;51.486;6.332;2022-12-10T08:42:56;26.05;;;11.73;;
75639;SDS011;64233;51.486;6.332;2022-12-10T08:45:21;5.47;;;3.88;;
75639;SDS011;64233;51.486;6.332;2022-12-10T08:47:46;23.42;;;10.07;;
75639;SDS011;64233;51.486;6.332;2022-12-10T08:50:12;32.08;;;10.73;;
75639;SDS011;64233;51.486;6.332;2022-12-10T08:52:37;23.00;;;11.60;;
75639;SDS011;64233;51.486;6.332;2022-12-10T08:55:02;15.98;;;7.53;;
75639;SDS011;64233;51.486;6.332;2022-12-10T08:57:28;19.80;;;9.85;;
75639;SDS011;64233;51.486;6.332;2022-12-10T08:59:53;31.23;;;12.00;;
75639;SDS011;64233;51.486;6.332;2022-12-10T09:02:19;22.42;;;10.57;;
75639;SDS011;64233;51.486;6.332;2022-12-10T09:04:44;25.95;;;10.60;;
75639;SDS011;64233;51.486;6.332;2022-12-10T09:07:11;20.83;;;10.10;;
75639;SDS011;64233;51.486;6.332;2022-12-10T09:09:36;17.08;;;8.85;;
75639;SDS011;64233;51.486;6.332;2022-12-10T09:12:02;25.42;;;10.82;;
75639;SDS011;64233;51.486;6.332;2022-12-10T09:14:27;21.35;;;8.75;;
75639;SDS011;64233;51.486;6.332;2022-12-10T09:16:52;20.25;;;8.48;;
75639;SDS011;64233;51.486;6.332;2022-12-10T09:19:18;19.58;;;5.97;;
75639;SDS011;64233;51.486;6.332;2022-12-10T09:21:43;22.52;;;10.50;;
75639;SDS011;64233;51.486;6.332;2022-12-10T09:24:08;13.63;;;7.95;;
75639;SDS011;64233;51.486;6.332;2022-12-10T09:26:34;33.15;;;14.25;;
75639;SDS011;64233;51.486;6.332;2022-12-10T09:28:59;35.00;;;14.40;;
75639;SDS011;64233;51.486;6.332;2022-12-10T09:31:25;21.75;;;7.88;;
75639;SDS011;64233;51.486;6.332;2022-12-10T09:33:51;31.25;;;13.50;;
75639;SDS011;64233;51.486;6.332;2022-12-10T09:36:18;31.13;;;12.30;;
75639;SDS011;64233;51.486;6.332;2022-12-10T09:38:45;21.27;;;11.13;;
75639;SDS011;64233;51.486;6.332;2022-12-10T09:41:21;28.38;;;13.85;;
75639;SDS011;64233;51.486;6.332;2022-12-10T09:44:12;16.10;;;8.60;;
75639;SDS011;64233;51.486;6.332;2022-12-10T09:46:50;23.00;;;10.48;;
75639;SDS011;64233;51.486;6.332;2022-12-10T09:49:27;26.20;;;10.32;;
75639;SDS011;64233;51.486;6.332;2022-12-10T09:51:55;33.50;;;11.90;;
75639;SDS011;64233;51.486;6.332;2022-12-10T09:54:28;7.70;;;3.22;;
75639;SDS011;64233;51.486;6.332;2022-12-10T09:56:56;13.60;;;5.45;;
75639;SDS011;64233;51.486;6.332;2022-12-10T09:59:27;21.42;;;9.60;;
75639;SDS011;64233;51.486;6.332;2022-12-10T10:02:02;30.17;;;10.70;;
75639;SDS011;64233;51.486;6.332;2022-12-10T10:04:36;26.35;;;9.68;;
75639;SDS011;64233;51.486;6.332;2022-12-10T10:07:01;28.05;;;12.32;;
75639;SDS011;64233;51.486;6.332;2022-12-10T10:09:29;20.90;;;10.43;;
75639;SDS011;64233;51.486;6.332;2022-12-10T10:12:02;42.38;;;16.70;;
75639;SDS011;64233;51.486;6.332;2022-12-10T10:14:34;29.00;;;11.57;;
75639;SDS011;64233;51.486;6.332;2022-12-10T10:17:01;41.33;;;14.73;;
75639;SDS011;64233;51.486;6.332;2022-12-10T10:19:29;29.42;;;12.80;;
75639;SDS011;64233;51.486;6.332;2022-12-10T10:22:02;20.70;;;9.00;;
75639;SDS011;64233;51.486;6.332;2022-12-10T10:24:33;22.08;;;12.48;;
75639;SDS011;64233;51.486;6.332;2022-12-10T10:29:46;6.57;;;4.05;;
75639;SDS011;64233;51.486;6.332;2022-12-10T10:32:18;33.92;;;11.02;;
75639;SDS011;64233;51.486;6.332;2022-12-10T10:34:44;33.80;;;12.65;;
75639;SDS011;64233;51.486;6.332;2022-12-10T10:37:30;38.00;;;14.63;;
75639;SDS011;64233;51.486;6.332;2022-12-10T10:40:04;14.48;;;8.15;;
75639;SDS011;64233;51.486;6.332;2022-12-10T10:45:29;40.70;;;15.70;;
75639;SDS011;64233;51.486;6.332;2022-12-10T10:48:04;36.13;;;14.68;;
75639;SDS011;64233;51.486;6.332;2022-12-10T10:50:41;41.05;;;15.75;;
75639;SDS011;64233;51.486;6.332;2022-12-10T10:56:16;32.67;;;14.07;;
75639;SDS011;64233;51.486;6.332;2022-12-10T11:01:43;27.67;;;12.13;;
75639;SDS011;64233;51.486;6.332;2022-12-10T11:04:10;31.70;;;10.48;;
75639;SDS011;64233;51.486;6.332;2022-12-10T11:06:35;37.58;;;11.80;;
75639;SDS011;64233;51.486;6.332;2022-12-10T11:09:01;26.33;;;13.73;;
75639;SDS011;64233;51.486;6.332;2022-12-10T11:16:40;34.90;;;14.23;;
75639;SDS011;64233;51.486;6.332;2022-12-10T11:19:07;27.52;;;13.95;;
75639;SDS011;64233;51.486;6.332;2022-12-10T11:21:44;42.33;;;16.27;;
75639;SDS011;64233;51.486;6.332;2022-12-10T11:24:10;39.38;;;14.52;;
75639;SDS011;64233;51.486;6.332;2022-12-10T11:26:52;36.38;;;15.55;;
75639;SDS011;64233;51.486;6.332;2022-12-10T11:35:16;18.40;;;8.73;;
75639;SDS011;64233;51.486;6.332;2022-12-10T11:37:58;28.83;;;14.50;;
75639;SDS011;64233;51.486;6.332;2022-12-10T11:40:50;27.60;;;10.93;;
75639;SDS011;64233;51.486;6.332;2022-12-10T11:43:35;29.95;;;14.38;;
75639;SDS011;64233;51.486;6.332;2022-12-10T11:49:23;28.45;;;13.95;;
75639;SDS011;64233;51.486;6.332;2022-12-10T11:54:52;45.80;;;18.70;;
75639;SDS011;64233;51.486;6.332;2022-12-10T12:02:58;40.58;;;15.68;;
75639;SDS011;64233;51.486;6.332;2022-12-10T12:05:59;36.97;;;14.52;;
75639;SDS011;64233;51.486;6.332;2022-12-10T12:08:43;43.92;;;17.65;;
75639;SDS011;64233;51.486;6.332;2022-12-10T12:11:26;45.65;;;17.67;;
75639;SDS011;64233;51.486;6.332;2022-12-10T12:14:13;38.47;;;12.43;;
75639;SDS011;64233;51.486;6.332;2022-12-10T12:16:46;44.63;;;16.77;;
75639;SDS011;64233;51.486;6.332;2022-12-10T12:19:22;43.35;;;18.38;;
75639;SDS011;64233;51.486;6.332;2022-12-10T12:21:53;43.60;;;18.42;;
75639;SDS011;64233;51.486;6.332;2022-12-10T12:24:24;30.23;;;14.88;;
75639;SDS011;64233;51.486;6.332;2022-12-10T12:30:04;32.00;;;12.60;;
75639;SDS011;64233;51.486;6.332;2022-12-10T12:35:43;25.67;;;9.68;;
75639;SDS011;64233;51.486;6.332;2022-12-10T12:40:59;36.05;;;13.73;;
75639;SDS011;64233;51.486;6.332;2022-12-10T12:46:00;36.97;;;15.75;;
75639;SDS011;64233;51.486;6.332;2022-12-10T12:54:40;30.45;;;13.05;;
75639;SDS011;64233;51.486;6.332;2022-12-10T12:57:07;37.00;;;16.00;;
75639;SDS011;64233;51.486;6.332;2022-12-10T12:59:53;42.13;;;16.23;;
75639;SDS011;64233;51.486;6.332;2022-12-10T13:05:20;38.40;;;15.57;;
75639;SDS011;64233;51.486;6.332;2022-12-10T13:10:59;42.08;;;17.13;;
75639;SDS011;64233;51.486;6.332;2022-12-10T13:13:41;34.80;;;14.10;;
75639;SDS011;64233;51.486;6.332;2022-12-10T13:17:08;43.17;;;16.20;;
75639;SDS011;64233;51.486;6.332;2022-12-10T13:32:20;42.08;;;18.00;;
75639;SDS011;64233;51.486;6.332;2022-12-10T13:37:33;42.40;;;16.77;;
75639;SDS011;64233;51.486;6.332;2022-12-10T13:40:26;39.20;;;17.90;;
75639;SDS011;64233;51.486;6.332;2022-12-10T13:42:58;34.97;;;14.68;;
75639;SDS011;64233;51.486;6.332;2022-12-10T13:46:23;32.72;;;13.82;;
75639;SDS011;64233;51.486;6.332;2022-12-10T13:48:52;44.42;;;14.48;;
75639;SDS011;64233;51.486;6.332;2022-12-10T13:54:30;33.78;;;15.13;;
75639;SDS011;64233;51.486;6.332;2022-12-10T13:57:12;37.17;;;13.70;;
75639;SDS011;64233;51.486;6.332;2022-12-10T14:07:46;29.25;;;12.15;;
75639;SDS011;64233;51.486;6.332;2022-12-10T14:10:15;32.78;;;12.55;;
75639;SDS011;64233;51.486;6.332;2022-12-10T14:12:43;38.55;;;14.65;;
75639;SDS011;64233;51.486;6.332;2022-12-10T14:15:20;37.38;;;14.30;;
75639;SDS011;64233;51.486;6.332;2022-12-10T14:17:49;44.35;;;16.60;;
75639;SDS011;64233;51.486;6.332;2022-12-10T14:20:18;46.95;;;16.52;;
75639;SDS011;64233;51.486;6.332;2022-12-10T14:22:49;46.38;;;15.88;;
75639;SDS011;64233;51.486;6.332;2022-12-10T14:25:16;32.10;;;12.05;;
75639;SDS011;64233;51.486;6.332;2022-12-10T14:27:48;34.63;;;12.07;;
75639;SDS011;64233;51.486;6.332;2022-12-10T14:30:19;35.70;;;13.63;;
75639;SDS011;64233;51.486;6.332;2022-12-10T14:32:47;46.97;;;16.08;;
75639;SDS011;64233;51.486;6.332;2022-12-10T14:35:15;28.08;;;9.23;;
75639;SDS011;64233;51.486;6.332;2022-12-10T14:37:44;36.58;;;15.25;;
75639;SDS011;64233;51.486;6.332;2022-12-10T14:40:29;33.33;;;15.13;;
75639;SDS011;64233;51.486;6.332;2022-12-10T14:43:04;43.55;;;15.63;;
75639;SDS011;64233;51.486;6.332;2022-12-10T14:45:38;34.45;;;11.80;;
75639;SDS011;64233;51.486;6.332;2022-12-10T14:48:10;40.80;;;14.50;;
75639;SDS011;64233;51.486;6.332;2022-12-10T14:50:37;31.35;;;11.68;;
75639;SDS011;64233;51.486;6.332;2022-12-10T14:53:05;32.88;;;13.43;;
75639;SDS011;64233;51.486;6.332;2022-12-10T14:55:43;41.50;;;13.38;;
75639;SDS011;64233;51.486;6.332;2022-12-10T14:58:27;28.70;;;12.40;;
75639;SDS011;64233;51.486;6.332;2022-12-10T15:01:01;21.63;;;10.40;;
75639;SDS011;64233;51.486;6.332;2022-12-10T15:03:27;33.75;;;15.57;;
75639;SDS011;64233;51.486;6.332;2022-12-10T15:05:57;27.25;;;10.63;;
75639;SDS011;64233;51.486;6.332;2022-12-10T15:08:25;32.30;;;12.20;;
75639;SDS011;64233;51.486;6.332;2022-12-10T15:10:52;40.33;;;14.73;;
75639;SDS011;64233;51.486;6.332;2022-12-10T15:13:26;33.65;;;11.35;;
75639;SDS011;64233;51.486;6.332;2022-12-10T15:15:54;30.40;;;8.45;;
75639;SDS011;64233;51.486;6.332;2022-12-10T15:18:20;21.65;;;10.30;;
75639;SDS011;64233;51.486;6.332;2022-12-10T15:20:51;28.95;;;11.25;;
75639;SDS011;64233;51.486;6.332;2022-12-10T15:28:37;33.33;;;11.23;;
75639;SDS011;64233;51.486;6.332;2022-12-10T15:34:08;34.75;;;13.32;;
75639;SDS011;64233;51.486;6.332;2022-12-10T15:49:44;35.50;;;13.88;;
75639;SDS011;64233;51.486;6.332;2022-12-10T15:52:17;41.05;;;14.48;;
75639;SDS011;64233;51.486;6.332;2022-12-10T15:54:45;31.92;;;11.50;;
75639;SDS011;64233;51.486;6.332;2022-12-10T15:57:19;29.58;;;11.07;;
75639;SDS011;64233;51.486;6.332;2022-12-10T16:05:04;28.98;;;11.65;;
75639;SDS011;64233;51.486;6.332;2022-12-10T16:07:34;36.13;;;12.48;;
75639;SDS011;64233;51.486;6.332;2022-12-10T16:09:59;30.40;;;12.68;;
75639;SDS011;64233;51.486;6.332;2022-12-10T16:12:25;32.15;;;13.00;;
75639;SDS011;64233;51.486;6.332;2022-12-10T16:14:51;34.97;;;14.68;;
75639;SDS011;64233;51.486;6.332;2022-12-10T16:17:21;24.13;;;11.20;;
75639;SDS011;64233;51.486;6.332;2022-12-10T16:19:46;26.92;;;11.88;;
75639;SDS011;64233;51.486;6.332;2022-12-10T16:22:12;36.13;;;13.35;;
75639;SDS011;64233;51.486;6.332;2022-12-10T16:24:37;30.25;;;10.23;;
75639;SDS011;64233;51.486;6.332;2022-12-10T16:27:08;22.67;;;9.40;;
75639;SDS011;64233;51.486;6.332;2022-12-10T16:29:36;24.08;;;9.40;;
75639;SDS011;64233;51.486;6.332;2022-12-10T16:32:02;30.67;;;11.80;;
75639;SDS011;64233;51.486;6.332;2022-12-10T16:34:27;28.20;;;11.80;;
75639;SDS011;64233;51.486;6.332;2022-12-10T16:36:52;38.42;;;12.68;;
75639;SDS011;64233;51.486;6.332;2022-12-10T16:39:17;35.95;;;11.02;;
75639;SDS011;64233;51.486;6.332;2022-12-10T16:41:43;27.15;;;11.38;;
75639;SDS011;64233;51.486;6.332;2022-12-10T16:44:08;32.38;;;11.00;;
75639;SDS011;64233;51.486;6.332;2022-12-10T16:46:34;32.75;;;10.57;;
75639;SDS011;64233;51.486;6.332;2022-12-10T16:48:59;31.73;;;11.68;;
75639;SDS011;64233;51.486;6.332;2022-12-10T16:51:28;35.72;;;11.70;;